San Juan Community, Texas
Current Conditions -  °F | °C
As of 3:53 AM on Friday 19 Dec 2014 (Local Time) from KMFE Reporting Station
Haze Haze  
Wind Chill: 62°   Ceiling: 1200
Heat Index: 62°   Visibility: 5mi
Dew Point: 61°   Wind: 3mph
Humidity: 96%   Direction: 310°NW
Pressure: 29.95"   Gusts: NA
Location:  26.2938°N, 98.1548°W
Report Text: KMFE 190953Z AUTO 31003KT 5SM BR SCT004 OVC012 17/16 A2995 RMK AO2 SLP142 T01670161
Loading
Personal Weather Stations






























Interactive Weather Map New forecast layout! Learn more

10-Day Weather Forecast

Advertisements
Track Severe Weather on mobile